createdAt,value
2016-08-08T00:00:35.044Z,1149.59
2016-08-08T00:01:35.043Z,1149.4
2016-08-08T00:02:35.047Z,1149.39
2016-08-08T00:03:35.029Z,1149.43
2016-08-08T00:04:35.036Z,1149.36
2016-08-08T00:05:35.042Z,1149.34
2016-08-08T00:06:35.052Z,1149.37
2016-08-08T00:07:35.046Z,1149.59
2016-08-08T00:08:35.083Z,1149.65
2016-08-08T00:09:35.034Z,1149.73
2016-08-08T00:10:35.046Z,1149.58
2016-08-08T00:12:35.056Z,1149.73
2016-08-08T00:13:35.073Z,1149.61
2016-08-08T00:14:35.062Z,1149.5
2016-08-08T00:15:35.067Z,1149.54
2016-08-08T00:16:35.053Z,1149.41
2016-08-08T00:17:35.232Z,1149.47
2016-08-08T00:18:35.080Z,1149.32
2016-08-08T00:19:35.070Z,1149.33
2016-08-08T00:20:35.060Z,1149.21
2016-08-08T00:21:35.417Z,1149.12
2016-08-08T00:22:35.055Z,1149.03
2016-08-08T00:23:35.078Z,1148.91
2016-08-08T00:24:35.054Z,1148.87
2016-08-08T00:25:35.079Z,1148.87
2016-08-08T00:27:35.060Z,1149.02
2016-08-08T00:28:35.111Z,1149.04
2016-08-08T00:29:35.073Z,1149.12
2016-08-08T00:30:35.110Z,1149.26
2016-08-08T00:31:35.077Z,1149.5
2016-08-08T00:32:35.111Z,1149.77
2016-08-08T00:33:35.080Z,1150.04
2016-08-08T00:34:35.065Z,1150.42
2016-08-08T00:35:35.074Z,1150.77
2016-08-08T00:36:35.069Z,1151.2
2016-08-08T00:37:35.084Z,1151.57
2016-08-08T00:38:35.107Z,1151.91
2016-08-08T00:39:35.090Z,1152.36
2016-08-08T00:40:35.080Z,1152.71
2016-08-08T00:42:35.083Z,1153.49
2016-08-08T00:43:35.155Z,1153.89
2016-08-08T00:44:35.075Z,1154.16
2016-08-08T00:45:35.090Z,1154.46
2016-08-08T00:46:35.102Z,1154.68
2016-08-08T00:47:35.082Z,1154.94
2016-08-08T00:48:35.105Z,1155.12
2016-08-08T00:49:35.095Z,1155.3
2016-08-08T00:50:35.087Z,1155.47
2016-08-08T00:51:35.118Z,1155.54
2016-08-08T00:52:35.077Z,1155.6
2016-08-08T00:53:35.091Z,1155.63
2016-08-08T00:54:35.096Z,1155.65
2016-08-08T00:55:35.119Z,1155.77
2016-08-08T00:56:35.141Z,1155.88
2016-08-08T00:57:35.356Z,1155.94
2016-08-08T00:58:35.088Z,1155.95
2016-08-08T00:59:35.086Z,1156.1
2016-08-08T01:00:35.143Z,1156.19
2016-08-08T01:01:35.103Z,1156.19
2016-08-08T01:02:35.111Z,1156.27
2016-08-08T01:03:35.109Z,1156.37
2016-08-08T01:04:35.098Z,1156.47
2016-08-08T01:05:35.088Z,1156.56
2016-08-08T01:06:35.107Z,1156.67
2016-08-08T01:07:35.113Z,1156.63
2016-08-08T01:08:35.098Z,1156.69
2016-08-08T01:09:35.097Z,1156.84
2016-08-08T01:10:35.092Z,1156.84
2016-08-08T01:12:35.421Z,1156.81
2016-08-08T01:13:35.112Z,1156.74
2016-08-08T01:14:35.111Z,1156.7
2016-08-08T01:15:36.133Z,1156.58
2016-08-08T01:16:35.123Z,1156.57
2016-08-08T01:17:35.113Z,1156.64
2016-08-08T01:18:35.776Z,1156.73
2016-08-08T01:19:35.535Z,1156.85
2016-08-08T01:20:35.112Z,1157.03
2016-08-08T01:21:35.131Z,1157.17
2016-08-08T01:22:35.106Z,1157.34
2016-08-08T01:23:35.109Z,1157.39
2016-08-08T01:24:35.101Z,1157.52
2016-08-08T01:25:35.126Z,1157.59
2016-08-08T01:26:35.645Z,1157.76
2016-08-08T01:27:35.113Z,1157.86
2016-08-08T01:28:35.110Z,1157.86
2016-08-08T01:29:35.120Z,1157.83
2016-08-08T01:30:35.111Z,1157.79
2016-08-08T01:31:35.115Z,1157.71
2016-08-08T01:32:35.143Z,1157.69
2016-08-08T01:33:35.150Z,1157.62
2016-08-08T01:34:35.149Z,1157.63
2016-08-08T01:35:35.131Z,1157.72
2016-08-08T01:36:35.129Z,1157.74
2016-08-08T01:37:35.509Z,1157.67
2016-08-08T01:38:35.161Z,1157.72
2016-08-08T01:39:35.141Z,1157.84
2016-08-08T01:40:35.531Z,1157.81
2016-08-08T01:41:35.141Z,1157.85
2016-08-08T01:42:35.140Z,1157.9
2016-08-08T01:43:35.148Z,1158
2016-08-08T01:44:35.150Z,1158.05
2016-08-08T01:45:35.151Z,1158.05
2016-08-08T01:46:35.144Z,1158.15
2016-08-08T01:47:35.123Z,1158.21
2016-08-08T01:48:35.153Z,1158.32
2016-08-08T01:49:35.143Z,1158.41
2016-08-08T01:50:35.146Z,1158.46
2016-08-08T01:51:35.151Z,1158.61
2016-08-08T01:52:35.135Z,1158.68
2016-08-08T01:53:35.137Z,1158.84
2016-08-08T01:54:35.145Z,1158.89
2016-08-08T01:55:35.145Z,1159.14
2016-08-08T01:56:35.175Z,1159.14
2016-08-08T01:57:35.139Z,1159.18
2016-08-08T01:58:35.538Z,1159.32
2016-08-08T01:59:35.140Z,1159.32
2016-08-08T02:00:35.157Z,1159.4
2016-08-08T02:01:35.146Z,1159.44
2016-08-08T02:02:35.144Z,1159.53
2016-08-08T02:03:35.150Z,1159.52
2016-08-08T02:04:35.147Z,1159.55
2016-08-08T02:05:35.144Z,1159.61
2016-08-08T02:06:35.178Z,1159.6
2016-08-08T02:07:35.172Z,1159.68
2016-08-08T02:08:35.164Z,1159.64
2016-08-08T02:09:35.175Z,1159.72
2016-08-08T02:10:35.175Z,1159.6
2016-08-08T02:11:35.185Z,1159.61
2016-08-08T02:12:35.178Z,1159.59
2016-08-08T02:13:35.168Z,1159.63
2016-08-08T02:14:35.174Z,1159.62
2016-08-08T02:15:35.165Z,1159.53
2016-08-08T02:16:35.935Z,1159.49
2016-08-08T02:17:35.164Z,1159.43
2016-08-08T02:18:35.172Z,1159.42
2016-08-08T02:19:35.189Z,1159.45
2016-08-08T02:20:35.178Z,1159.46
2016-08-08T02:21:35.168Z,1159.46
2016-08-08T02:22:35.181Z,1159.6
2016-08-08T02:23:35.176Z,1159.63
2016-08-08T02:24:35.241Z,1159.83
2016-08-08T02:25:35.162Z,1159.86
2016-08-08T02:26:35.181Z,1159.99
2016-08-08T02:27:35.184Z,1160.08
2016-08-08T02:28:35.188Z,1160.15
2016-08-08T02:29:35.542Z,1160.19
2016-08-08T02:30:35.175Z,1160.29
2016-08-08T02:31:35.180Z,1160.35
2016-08-08T02:32:35.211Z,1160.41
2016-08-08T02:33:35.185Z,1160.46
2016-08-08T02:34:35.184Z,1160.5
2016-08-08T02:35:35.189Z,1160.58
2016-08-08T02:36:35.181Z,1160.67
2016-08-08T02:37:35.189Z,1160.74
2016-08-08T02:38:35.181Z,1160.85
2016-08-08T02:39:35.309Z,1160.89
2016-08-08T02:40:35.195Z,1160.99
2016-08-08T02:41:35.195Z,1161.02
2016-08-08T02:42:35.961Z,1161.08
2016-08-08T02:43:35.178Z,1161.17
2016-08-08T02:44:35.556Z,1161.16
2016-08-08T02:45:35.295Z,1161.25
2016-08-08T02:46:35.194Z,1161.36
2016-08-08T02:47:35.296Z,1161.38
2016-08-08T02:48:35.305Z,1161.39
2016-08-08T02:49:35.212Z,1161.42
2016-08-08T02:50:35.362Z,1161.4
2016-08-08T02:51:35.254Z,1161.47
2016-08-08T02:52:35.455Z,1161.51
2016-08-08T02:53:35.667Z,1161.53
2016-08-08T02:54:36.287Z,1161.57
2016-08-08T02:55:35.209Z,1161.67
2016-08-08T02:56:35.271Z,1161.64
2016-08-08T02:57:35.299Z,1161.61
2016-08-08T02:58:35.210Z,1161.69
2016-08-08T02:59:35.202Z,1161.65
2016-08-08T03:00:35.211Z,1161.66
2016-08-08T03:01:35.216Z,1161.72
2016-08-08T03:02:35.208Z,1161.72
2016-08-08T03:03:35.255Z,1161.7
2016-08-08T03:04:35.209Z,1161.68
2016-08-08T03:05:35.226Z,1161.72
2016-08-08T03:06:35.366Z,1161.74
2016-08-08T03:07:35.204Z,1161.64
2016-08-08T03:08:35.209Z,1161.65
2016-08-08T03:09:35.295Z,1161.66
2016-08-08T03:10:35.243Z,1161.57
2016-08-08T03:11:35.835Z,1161.54
2016-08-08T03:12:35.222Z,1161.53
2016-08-08T03:13:35.213Z,1161.49
2016-08-08T03:14:35.218Z,1161.51
2016-08-08T03:15:35.224Z,1161.5
2016-08-08T03:16:35.394Z,1161.5
2016-08-08T03:17:35.329Z,1161.45
2016-08-08T03:18:35.233Z,1161.42
2016-08-08T03:19:35.234Z,1161.43
2016-08-08T03:20:35.450Z,1161.3
2016-08-08T03:21:35.379Z,1161.22
2016-08-08T03:22:35.324Z,1161.14
2016-08-08T03:23:35.228Z,1161
2016-08-08T03:24:35.237Z,1160.99
2016-08-08T03:25:35.972Z,1160.9
2016-08-08T03:26:35.999Z,1160.93
2016-08-08T03:27:35.557Z,1160.82
2016-08-08T03:28:35.226Z,1160.71
2016-08-08T03:29:35.259Z,1160.64
2016-08-08T03:30:35.405Z,1160.62
2016-08-08T03:31:35.250Z,1160.58
2016-08-08T03:32:35.322Z,1160.46
2016-08-08T03:33:35.239Z,1160.51
2016-08-08T03:34:35.241Z,1160.5
2016-08-08T03:35:35.264Z,1160.38
2016-08-08T03:36:35.582Z,1160.31
2016-08-08T03:37:35.363Z,1160.32
2016-08-08T03:38:35.239Z,1160.25
2016-08-08T03:39:35.234Z,1160.23
2016-08-08T03:40:35.995Z,1160.14
2016-08-08T03:41:35.257Z,1160.11
2016-08-08T03:42:35.316Z,1160.07
2016-08-08T03:43:35.274Z,1160.03
2016-08-08T03:44:35.235Z,1159.92
2016-08-08T03:45:35.240Z,1159.88
2016-08-08T03:46:35.379Z,1159.82
2016-08-08T03:47:35.302Z,1159.79
2016-08-08T03:48:35.509Z,1159.72
2016-08-08T03:49:35.427Z,1159.63
2016-08-08T03:50:35.368Z,1159.62
2016-08-08T03:51:35.485Z,1159.52
2016-08-08T03:52:35.332Z,1159.45
2016-08-08T03:53:35.279Z,1159.42
2016-08-08T03:54:35.284Z,1159.45
2016-08-08T03:55:35.282Z,1159.36
2016-08-08T03:56:35.258Z,1159.26
2016-08-08T03:57:36.314Z,1159.23
2016-08-08T03:58:35.269Z,1159.21
2016-08-08T03:59:35.846Z,1159.17
2016-08-08T04:00:35.282Z,1159.07
2016-08-08T04:01:35.286Z,1158.89
2016-08-08T04:02:35.453Z,1158.94
2016-08-08T04:03:35.373Z,1158.9
2016-08-08T04:04:35.274Z,1158.86
2016-08-08T04:05:35.253Z,1158.74
2016-08-08T04:06:35.259Z,1158.8
2016-08-08T04:07:35.271Z,1158.79
2016-08-08T04:08:35.341Z,1158.68
2016-08-08T04:09:35.339Z,1158.59
2016-08-08T04:10:35.275Z,1158.57
2016-08-08T04:11:35.276Z,1158.51
2016-08-08T04:12:35.270Z,1158.41
2016-08-08T04:13:35.340Z,1158.36
2016-08-08T04:14:35.324Z,1158.42
2016-08-08T04:15:35.518Z,1158.41
2016-08-08T04:16:35.302Z,1158.39
2016-08-08T04:17:35.361Z,1158.34
2016-08-08T04:18:35.360Z,1158.38
2016-08-08T04:19:35.701Z,1158.33
2016-08-08T04:20:35.603Z,1158.44
2016-08-08T04:21:35.426Z,1158.52
2016-08-08T04:22:35.273Z,1158.51
2016-08-08T04:23:35.273Z,1158.56
2016-08-08T04:24:35.272Z,1158.63
2016-08-08T04:25:35.281Z,1158.66
2016-08-08T04:26:35.304Z,1158.68
2016-08-08T04:27:35.363Z,1158.64
2016-08-08T04:28:35.970Z,1158.75
2016-08-08T04:29:35.314Z,1158.66
2016-08-08T04:30:35.554Z,1158.6
2016-08-08T04:31:35.302Z,1158.61
2016-08-08T04:32:35.361Z,1158.65
2016-08-08T04:33:35.410Z,1158.63
2016-08-08T04:34:35.318Z,1158.64
2016-08-08T04:35:35.393Z,1158.54
2016-08-08T04:36:35.376Z,1158.52
2016-08-08T04:37:35.389Z,1158.52
2016-08-08T04:38:35.580Z,1158.59
2016-08-08T04:39:35.313Z,1158.54
2016-08-08T04:40:35.303Z,1158.54
2016-08-08T04:41:35.307Z,1158.59
2016-08-08T04:42:35.307Z,1158.71
2016-08-08T04:43:35.459Z,1158.75
2016-08-08T04:44:35.337Z,1158.82
2016-08-08T04:45:35.297Z,1158.91
2016-08-08T04:46:35.304Z,1159.2
2016-08-08T04:47:35.318Z,1159.18
2016-08-08T04:48:35.301Z,1159.33
2016-08-08T04:49:35.326Z,1159.48
2016-08-08T04:50:35.313Z,1159.47
2016-08-08T04:51:35.306Z,1159.61
2016-08-08T04:52:35.308Z,1159.8
2016-08-08T04:53:35.318Z,1159.96
2016-08-08T04:54:35.310Z,1160.09
2016-08-08T04:55:35.310Z,1160.29
2016-08-08T04:56:35.335Z,1160.32
2016-08-08T04:57:35.310Z,1160.52
2016-08-08T04:58:35.304Z,1160.59
2016-08-08T04:59:35.306Z,1160.76
2016-08-08T05:00:35.305Z,1160.86
2016-08-08T05:01:35.311Z,1160.96
2016-08-08T05:02:35.324Z,1161
2016-08-08T05:03:35.307Z,1161.16
2016-08-08T05:04:35.313Z,1161.42
2016-08-08T05:05:35.333Z,1161.62
2016-08-08T05:06:35.323Z,1161.69
2016-08-08T05:07:35.337Z,1161.75
2016-08-08T05:08:35.315Z,1161.79
2016-08-08T05:09:35.319Z,1161.98
2016-08-08T05:10:35.330Z,1161.99
2016-08-08T05:11:35.329Z,1161.99
2016-08-08T05:13:35.333Z,1161.84
2016-08-08T05:14:35.335Z,1161.75
2016-08-08T05:15:35.321Z,1161.67
2016-08-08T05:16:35.338Z,1161.58
2016-08-08T05:17:35.335Z,1161.48
2016-08-08T05:18:35.327Z,1161.22
2016-08-08T05:19:35.343Z,1160.93
2016-08-08T05:20:35.337Z,1160.47
2016-08-08T05:21:35.341Z,1160.11
2016-08-08T05:22:35.336Z,1159.95
2016-08-08T05:23:35.344Z,1159.72
2016-08-08T05:24:35.390Z,1159.24
2016-08-08T05:25:35.337Z,1159.05
2016-08-08T05:26:35.338Z,1158.79
2016-08-08T05:28:35.349Z,1158.49
2016-08-08T05:29:35.340Z,1158.23
2016-08-08T05:30:35.352Z,1157.9
2016-08-08T05:31:35.374Z,1157.43
2016-08-08T05:32:35.364Z,1156.8
2016-08-08T05:33:35.352Z,1156.33
2016-08-08T05:34:35.367Z,1156.07
2016-08-08T05:35:35.364Z,1155.7
2016-08-08T05:36:35.346Z,1155.01
2016-08-08T05:37:35.352Z,1154.59
2016-08-08T05:38:35.367Z,1154.36
2016-08-08T05:39:35.367Z,1154.09
2016-08-08T05:40:35.367Z,1154.06
2016-08-08T05:41:35.369Z,1153.68
2016-08-08T05:43:35.349Z,1152.56
2016-08-08T05:44:35.367Z,1152.77
2016-08-08T05:45:35.363Z,1152.15
2016-08-08T05:46:35.367Z,1151.06
2016-08-08T05:47:35.426Z,1150.46
2016-08-08T05:48:35.367Z,1149.59
2016-08-08T05:49:35.358Z,1149.08
2016-08-08T05:50:35.365Z,1148.51
2016-08-08T05:51:35.371Z,1147.51
2016-08-08T05:52:35.396Z,1147.66
2016-08-08T05:53:35.371Z,1147.77
2016-08-08T05:54:35.368Z,1147
2016-08-08T05:55:35.371Z,1146.57
2016-08-08T05:56:35.390Z,1146.23
2016-08-08T05:57:35.362Z,1146.53
2016-08-08T05:58:35.374Z,1147.09
2016-08-08T05:59:35.365Z,1147.29
2016-08-08T06:00:35.376Z,1147.1
2016-08-08T06:01:35.397Z,1146.55
2016-08-08T06:02:35.427Z,1145.76
2016-08-08T06:03:35.372Z,1144.9
2016-08-08T06:04:35.415Z,1144.92
2016-08-08T06:05:35.376Z,1145.66
2016-08-08T06:06:35.381Z,1146.44
2016-08-08T06:07:35.401Z,1147.19
2016-08-08T06:08:35.376Z,1147.86
2016-08-08T06:09:35.376Z,1148.75
2016-08-08T06:10:35.398Z,1149.78
2016-08-08T06:11:35.390Z,1150.74
2016-08-08T06:12:35.381Z,1151.73
2016-08-08T06:13:35.413Z,1152.56
2016-08-08T06:14:35.379Z,1153.5
2016-08-08T06:15:35.388Z,1154.31
2016-08-08T06:16:35.393Z,1154.99
2016-08-08T06:17:35.399Z,1155.48
2016-08-08T06:18:35.407Z,1156.22
2016-08-08T06:19:35.403Z,1156.68
2016-08-08T06:20:35.400Z,1157.12
2016-08-08T06:21:35.401Z,1157.47
2016-08-08T06:22:35.387Z,1157.96
2016-08-08T06:23:35.400Z,1158.17
2016-08-08T06:24:35.400Z,1158.41
2016-08-08T06:25:35.400Z,1158.72
2016-08-08T06:26:35.400Z,1158.99
2016-08-08T06:27:35.405Z,1159.34
2016-08-08T06:28:35.404Z,1159.61
2016-08-08T06:29:35.400Z,1159.89
2016-08-08T06:30:35.434Z,1160.14
2016-08-08T06:31:35.430Z,1160.42
2016-08-08T06:32:35.412Z,1160.64
2016-08-08T06:33:35.429Z,1160.75
2016-08-08T06:34:35.416Z,1160.73
2016-08-08T06:35:35.415Z,1160.9
2016-08-08T06:36:35.429Z,1160.96
2016-08-08T06:37:35.407Z,1161.01
2016-08-08T06:38:35.412Z,1161.13
2016-08-08T06:39:35.426Z,1161.14
2016-08-08T06:40:35.491Z,1161.06
2016-08-08T06:41:35.979Z,1161
2016-08-08T06:42:35.527Z,1161.03
2016-08-08T06:43:35.428Z,1161.05
2016-08-08T06:44:35.469Z,1161.1
2016-08-08T06:45:35.430Z,1161.13
2016-08-08T06:46:35.524Z,1161.11
2016-08-08T06:47:35.507Z,1161.09
2016-08-08T06:48:35.434Z,1161.15
2016-08-08T06:49:35.495Z,1161.16
2016-08-08T06:50:35.435Z,1161.22
2016-08-08T06:51:35.436Z,1161.31
2016-08-08T06:52:35.431Z,1161.26
2016-08-08T06:53:35.445Z,1161.31
2016-08-08T06:54:35.460Z,1161.26
2016-08-08T06:55:35.445Z,1161.32
2016-08-08T06:56:35.429Z,1161.35
2016-08-08T06:57:35.430Z,1161.36
2016-08-08T06:58:35.430Z,1161.35
2016-08-08T06:59:35.459Z,1161.26
2016-08-08T07:00:35.447Z,1161.26
2016-08-08T07:01:35.436Z,1161.08
2016-08-08T07:02:35.476Z,1160.92
2016-08-08T07:03:35.434Z,1160.78
2016-08-08T07:04:35.461Z,1160.61
2016-08-08T07:05:35.431Z,1160.41
2016-08-08T07:06:35.430Z,1160.22
2016-08-08T07:07:35.436Z,1159.97
2016-08-08T07:08:35.431Z,1159.76
2016-08-08T07:09:35.430Z,1159.35
2016-08-08T07:10:35.464Z,1159.01
2016-08-08T07:11:35.434Z,1158.74
2016-08-08T07:12:35.439Z,1158.37
2016-08-08T07:13:35.588Z,1157.88
2016-08-08T07:14:35.449Z,1157.48
2016-08-08T07:15:35.446Z,1156.89
2016-08-08T07:16:36.274Z,1156.29
2016-08-08T07:17:35.467Z,1155.75
2016-08-08T07:18:35.465Z,1155.43
2016-08-08T07:19:35.462Z,1154.97
2016-08-08T07:20:35.773Z,1154.36
2016-08-08T07:21:35.437Z,1154.01
2016-08-08T07:22:35.473Z,1153.76
2016-08-08T07:23:36.394Z,1153.43
2016-08-08T07:24:35.445Z,1152.9
2016-08-08T07:25:36.173Z,1152.66
2016-08-08T07:26:35.462Z,1152.57
2016-08-08T07:27:35.481Z,1152.19
2016-08-08T07:28:36.016Z,1151.81
2016-08-08T07:29:35.463Z,1151.15
2016-08-08T07:30:35.499Z,1150.41
2016-08-08T07:31:35.541Z,1149.54
2016-08-08T07:32:35.609Z,1148.65
2016-08-08T07:33:35.467Z,1147.84
2016-08-08T07:34:35.471Z,1147.18
2016-08-08T07:35:35.457Z,1146.36
2016-08-08T07:36:35.470Z,1146.46
2016-08-08T07:37:35.464Z,1146.79
2016-08-08T07:38:35.514Z,1147.31
2016-08-08T07:39:35.469Z,1148
2016-08-08T07:40:35.459Z,1148.88
2016-08-08T07:41:35.523Z,1149.77
2016-08-08T07:42:35.481Z,1150.74
2016-08-08T07:43:35.496Z,1151.21
2016-08-08T07:44:35.467Z,1151.69
2016-08-08T07:45:35.495Z,1152.46
2016-08-08T07:46:35.486Z,1153.4
2016-08-08T07:47:35.494Z,1154.12
2016-08-08T07:48:35.465Z,1154.74
2016-08-08T07:49:36.056Z,1155.19
2016-08-08T07:50:35.505Z,1155.55
2016-08-08T07:51:35.501Z,1155.83
2016-08-08T07:52:35.621Z,1156.15
2016-08-08T07:53:35.512Z,1156.45
2016-08-08T07:54:35.487Z,1156.65
2016-08-08T07:55:35.505Z,1156.86
2016-08-08T07:56:35.495Z,1156.95
2016-08-08T07:57:35.484Z,1157.23
2016-08-08T07:58:35.502Z,1157.27
2016-08-08T07:59:35.481Z,1157.35
2016-08-08T08:00:35.487Z,1157.24
2016-08-08T08:01:35.494Z,1157.04
2016-08-08T08:02:35.495Z,1156.92
2016-08-08T08:03:35.491Z,1156.92
2016-08-08T08:04:35.486Z,1157.04
2016-08-08T08:05:35.511Z,1157.15
2016-08-08T08:06:35.500Z,1157.34
2016-08-08T08:07:35.492Z,1157.42
2016-08-08T08:08:35.495Z,1157.21
2016-08-08T08:09:35.492Z,1157.42
2016-08-08T08:10:35.498Z,1157.57
2016-08-08T08:11:35.521Z,1157.59
2016-08-08T08:12:35.502Z,1157.67
2016-08-08T08:13:35.504Z,1157.82
2016-08-08T08:14:35.498Z,1157.6
2016-08-08T08:15:35.571Z,1157.48
2016-08-08T08:16:35.533Z,1157.31
2016-08-08T08:17:35.525Z,1156.93
2016-08-08T08:18:35.590Z,1156.69
2016-08-08T08:19:35.527Z,1156.01
2016-08-08T08:20:35.530Z,1155.45
2016-08-08T08:21:35.532Z,1155.1
2016-08-08T08:22:35.528Z,1154.61
2016-08-08T08:23:35.521Z,1153.37
2016-08-08T08:24:35.598Z,1151.98
2016-08-08T08:25:35.523Z,1150.7
2016-08-08T08:26:35.551Z,1150.21
2016-08-08T08:27:35.526Z,1149.59
2016-08-08T08:28:35.515Z,1149.33
2016-08-08T08:29:35.527Z,1148.66
2016-08-08T08:30:35.527Z,1147.53
2016-08-08T08:31:35.587Z,1146.41
2016-08-08T08:32:35.548Z,1145.38
2016-08-08T08:33:35.523Z,1144.88
2016-08-08T08:34:35.592Z,1144.39
2016-08-08T08:35:35.530Z,1143.16
2016-08-08T08:36:35.532Z,1141.46
2016-08-08T08:37:35.557Z,1139.36
2016-08-08T08:38:35.527Z,1136.27
2016-08-08T08:39:35.533Z,1132.24
2016-08-08T08:40:35.526Z,1126.82
2016-08-08T08:41:35.533Z,1121.66
2016-08-08T08:42:35.544Z,1118.79
2016-08-08T08:43:35.531Z,1117.26
2016-08-08T08:44:35.532Z,1115.82
2016-08-08T08:45:35.551Z,1113.98
2016-08-08T08:46:35.557Z,1111.22
2016-08-08T08:47:35.570Z,1108.29
2016-08-08T08:48:35.569Z,1104.95
2016-08-08T08:49:35.533Z,1103.14
2016-08-08T08:50:35.544Z,1099.94
2016-08-08T08:51:35.559Z,1094.79
2016-08-08T08:52:35.551Z,1093.28
2016-08-08T08:53:35.601Z,1094.06
2016-08-08T08:54:35.566Z,1094.23
2016-08-08T08:55:35.558Z,1094.22
2016-08-08T08:56:35.610Z,1091.29
2016-08-08T08:57:35.589Z,1089.76
2016-08-08T08:58:35.618Z,1086.39
2016-08-08T08:59:35.565Z,1082.07
2016-08-08T09:00:35.565Z,1079.47
2016-08-08T09:01:35.557Z,1077.88
2016-08-08T09:02:35.573Z,1076.93
2016-08-08T09:03:35.592Z,1074.39
2016-08-08T09:04:35.662Z,1071.04
2016-08-08T09:05:35.558Z,1069.18
2016-08-08T09:06:35.581Z,1068.29
2016-08-08T09:07:35.550Z,1066.84
2016-08-08T09:08:35.559Z,1060.94
2016-08-08T09:09:35.562Z,1049.79
2016-08-08T09:10:35.550Z,1039.82
2016-08-08T09:11:35.556Z,1028.92
2016-08-08T09:12:35.567Z,1021.7
2016-08-08T09:13:35.562Z,1021.59
2016-08-08T09:14:35.594Z,1025.25
2016-08-08T09:15:35.571Z,1030.43
2016-08-08T09:16:35.554Z,1035.12
2016-08-08T09:17:35.570Z,1035.75
2016-08-08T09:18:35.560Z,1034.68
2016-08-08T09:19:35.596Z,1032.86
2016-08-08T09:20:35.559Z,1030.59
2016-08-08T09:21:35.577Z,1026.98
2016-08-08T09:22:35.564Z,1021.67
2016-08-08T09:23:35.579Z,1013.16
2016-08-08T09:24:35.596Z,1002.69
2016-08-08T09:25:35.560Z,997.51
2016-08-08T09:26:35.566Z,996.55
2016-08-08T09:27:35.884Z,998.69
2016-08-08T09:28:35.594Z,1004.77
2016-08-08T09:29:35.595Z,1012.97
2016-08-08T09:30:35.669Z,1018.23
2016-08-08T09:31:35.595Z,1021.89
2016-08-08T09:32:35.631Z,1026.49
2016-08-08T09:33:35.596Z,1030.53
2016-08-08T09:34:35.585Z,1037.57
2016-08-08T09:35:35.598Z,1045.97
2016-08-08T09:36:35.588Z,1048.83
2016-08-08T09:37:35.575Z,1049.5
2016-08-08T09:38:35.585Z,1050.59
2016-08-08T09:39:35.685Z,1054.76
2016-08-08T09:40:35.591Z,1061.78
2016-08-08T09:41:35.590Z,1068.72
2016-08-08T09:42:35.816Z,1075.15
2016-08-08T09:44:35.597Z,1089.14
2016-08-08T09:45:35.601Z,1095.76
2016-08-08T09:46:35.591Z,1101.45
2016-08-08T09:47:35.602Z,1105.81
2016-08-08T09:48:35.614Z,1110.04
2016-08-08T09:49:35.615Z,1113.67
2016-08-08T09:50:35.630Z,1117.38
2016-08-08T09:51:35.637Z,1120.73
2016-08-08T09:52:35.644Z,1123.48
2016-08-08T09:53:35.615Z,1125.63
2016-08-08T09:54:35.671Z,1126.99
2016-08-08T09:55:35.618Z,1128.28
2016-08-08T09:56:35.652Z,1128.95
2016-08-08T09:57:35.620Z,1129.88
2016-08-08T09:58:35.622Z,1131.72
2016-08-08T09:59:36.221Z,1132.87
2016-08-08T10:00:35.624Z,1133.52
2016-08-08T10:01:35.595Z,1134.21
2016-08-08T10:02:36.355Z,1134.97
2016-08-08T10:03:35.607Z,1135.94
2016-08-08T10:04:36.249Z,1136.32
2016-08-08T10:05:35.607Z,1136.46
2016-08-08T10:06:35.624Z,1137.23
2016-08-08T10:07:35.618Z,1138.08
2016-08-08T10:08:36.665Z,1138.7
2016-08-08T10:09:35.630Z,1138.78
2016-08-08T10:10:36.665Z,1139.08
2016-08-08T10:11:35.622Z,1139.91
2016-08-08T10:12:35.618Z,1140.82
2016-08-08T10:14:35.635Z,1142.11
2016-08-08T10:15:35.623Z,1142.22
2016-08-08T10:16:35.623Z,1142.9
2016-08-08T10:17:35.626Z,1143.22
2016-08-08T10:18:35.616Z,1143.93
2016-08-08T10:19:35.630Z,1144.84
2016-08-08T10:20:35.620Z,1145.3
2016-08-08T10:21:35.940Z,1145.89
2016-08-08T10:22:35.661Z,1146.5
2016-08-08T10:23:35.639Z,1147.22
2016-08-08T10:24:35.647Z,1147.68
2016-08-08T10:25:35.654Z,1148.39
2016-08-08T10:26:35.662Z,1149.11
2016-08-08T10:27:35.639Z,1149.64
2016-08-08T10:29:35.651Z,1150.82
2016-08-08T10:30:36.185Z,1151.53
2016-08-08T10:31:36.088Z,1152.18
2016-08-08T10:32:35.658Z,1152.73
2016-08-08T10:33:35.646Z,1153.33
2016-08-08T10:34:35.644Z,1153.95
2016-08-08T10:35:35.651Z,1154.28
2016-08-08T10:36:35.639Z,1154.4
2016-08-08T10:37:35.665Z,1154.59
2016-08-08T10:38:35.684Z,1154.79
2016-08-08T10:39:35.647Z,1154.95
2016-08-08T10:40:35.655Z,1155.25
2016-08-08T10:41:35.648Z,1155.59
2016-08-08T10:42:35.673Z,1155.79
2016-08-08T10:44:35.650Z,1156.05
2016-08-08T10:45:35.660Z,1156.15
2016-08-08T10:46:35.663Z,1156.38
2016-08-08T10:47:35.657Z,1156.5
2016-08-08T10:48:35.694Z,1156.63
2016-08-08T10:49:35.654Z,1156.8
2016-08-08T10:50:35.660Z,1156.97
2016-08-08T10:51:35.670Z,1157.59
2016-08-08T10:52:35.650Z,1158.14
2016-08-08T10:53:35.727Z,1158.7
2016-08-08T10:54:35.655Z,1159.31
2016-08-08T10:55:35.688Z,1159.7
2016-08-08T10:56:35.762Z,1160.08
2016-08-08T10:57:35.672Z,1160.22
2016-08-08T10:59:35.714Z,1160.31
2016-08-08T11:00:35.672Z,1160.49
2016-08-08T11:01:35.665Z,1160.62
2016-08-08T11:02:35.684Z,1160.83
2016-08-08T11:03:35.743Z,1161.03
2016-08-08T11:04:35.755Z,1161.05
2016-08-08T11:05:35.823Z,1160.93
2016-08-08T11:06:35.687Z,1160.93
2016-08-08T11:07:35.663Z,1160.93
2016-08-08T11:08:35.675Z,1161.07
2016-08-08T11:09:35.706Z,1161.15
2016-08-08T11:10:35.690Z,1161.26
2016-08-08T11:11:35.915Z,1161.4
2016-08-08T11:12:35.678Z,1161.66
2016-08-08T11:13:35.686Z,1161.94
2016-08-08T11:14:35.691Z,1162.25
2016-08-08T11:15:35.996Z,1162.5
2016-08-08T11:16:35.719Z,1162.68
2016-08-08T11:17:36.200Z,1162.92
2016-08-08T11:18:35.685Z,1163.17
2016-08-08T11:19:35.743Z,1163.3
2016-08-08T11:20:35.701Z,1163.31
2016-08-08T11:21:35.691Z,1163.28
2016-08-08T11:22:36.051Z,1163.26
2016-08-08T11:23:35.701Z,1163.23
2016-08-08T11:24:35.718Z,1163.15
2016-08-08T11:25:35.699Z,1163.14
2016-08-08T11:26:35.750Z,1163.05
2016-08-08T11:27:35.719Z,1163.03
2016-08-08T11:28:35.731Z,1163
2016-08-08T11:29:36.709Z,1162.97
2016-08-08T11:30:35.701Z,1162.91
2016-08-08T11:31:35.691Z,1162.92
2016-08-08T11:32:35.916Z,1162.82
2016-08-08T11:33:35.716Z,1162.83
2016-08-08T11:34:35.794Z,1162.78
2016-08-08T11:35:35.897Z,1162.69
2016-08-08T11:36:35.734Z,1162.45
2016-08-08T11:37:35.701Z,1162.32
2016-08-08T11:38:35.747Z,1162
2016-08-08T11:39:35.728Z,1161.67
2016-08-08T11:40:35.753Z,1161.34
2016-08-08T11:41:35.708Z,1161.1
2016-08-08T11:42:35.710Z,1160.77
2016-08-08T11:43:35.699Z,1160.31
2016-08-08T11:44:35.752Z,1159.65
2016-08-08T11:45:35.721Z,1159.15
2016-08-08T11:46:35.718Z,1158.83
2016-08-08T11:47:35.720Z,1158.64
2016-08-08T11:48:35.731Z,1158.27
2016-08-08T11:49:35.737Z,1157.94
2016-08-08T11:50:35.717Z,1157.54
2016-08-08T11:51:35.735Z,1157.02
2016-08-08T11:52:35.716Z,1156.48
2016-08-08T11:53:35.716Z,1155.77
2016-08-08T11:54:35.725Z,1155.03
2016-08-08T11:55:35.730Z,1154.76
2016-08-08T11:56:35.715Z,1154.78
2016-08-08T11:57:35.718Z,1155.14
2016-08-08T11:58:35.724Z,1155.27
2016-08-08T11:59:35.747Z,1155.42
2016-08-08T12:00:35.722Z,1155.29
2016-08-08T12:01:35.738Z,1154.41
2016-08-08T12:02:35.736Z,1153.47
2016-08-08T12:03:35.710Z,1152.11
2016-08-08T12:04:35.709Z,1150.4
2016-08-08T12:05:35.716Z,1148.98
2016-08-08T12:06:35.754Z,1147.61
2016-08-08T12:07:35.739Z,1146.63
2016-08-08T12:08:35.722Z,1145.59
2016-08-08T12:09:35.748Z,1145.14
2016-08-08T12:10:35.723Z,1144.65
2016-08-08T12:11:35.767Z,1144.24
2016-08-08T12:12:35.753Z,1143.11
2016-08-08T12:13:35.723Z,1141.36
2016-08-08T12:14:35.732Z,1139.55
2016-08-08T12:15:35.750Z,1137.36
2016-08-08T12:16:35.753Z,1134.5
2016-08-08T12:17:35.759Z,1131.49
2016-08-08T12:18:35.763Z,1128.93
2016-08-08T12:19:35.749Z,1126.91
2016-08-08T12:20:35.758Z,1124.76